sensor_id;sensor_type;location;lat;lon;timestamp;temperature;humidity
8824;DHT22;4448;50.904;4.694;2023-05-10T00:00:22;14.80;99.90
8824;DHT22;4448;50.904;4.694;2023-05-10T00:02:49;14.70;99.90
8824;DHT22;4448;50.904;4.694;2023-05-10T00:05:15;14.70;99.90
8824;DHT22;4448;50.904;4.694;2023-05-10T00:07:40;14.70;99.90
8824;DHT22;4448;50.904;4.694;2023-05-10T00:10:06;14.70;99.90
8824;DHT22;4448;50.904;4.694;2023-05-10T00:12:32;14.70;99.90
8824;DHT22;4448;50.904;4.694;2023-05-10T00:14:58;14.70;99.90
8824;DHT22;4448;50.904;4.694;2023-05-10T00:17:23;14.70;99.90
8824;DHT22;4448;50.904;4.694;2023-05-10T00:19:49;14.70;99.90
8824;DHT22;4448;50.904;4.694;2023-05-10T00:22:15;14.70;99.90
8824;DHT22;4448;50.904;4.694;2023-05-10T00:24:40;14.70;99.90
8824;DHT22;4448;50.904;4.694;2023-05-10T00:27:06;14.70;99.90
8824;DHT22;4448;50.904;4.694;2023-05-10T00:29:32;14.70;99.90
8824;DHT22;4448;50.904;4.694;2023-05-10T00:31:59;14.70;99.90
8824;DHT22;4448;50.904;4.694;2023-05-10T00:34:24;14.70;99.90
8824;DHT22;4448;50.904;4.694;2023-05-10T00:36:50;14.70;99.90
8824;DHT22;4448;50.904;4.694;2023-05-10T00:39:15;14.70;99.90
8824;DHT22;4448;50.904;4.694;2023-05-10T00:41:41;14.70;99.90
8824;DHT22;4448;50.904;4.694;2023-05-10T00:44:07;14.70;99.90
8824;DHT22;4448;50.904;4.694;2023-05-10T00:46:33;14.60;99.90
8824;DHT22;4448;50.904;4.694;2023-05-10T00:48:59;14.70;99.90
8824;DHT22;4448;50.904;4.694;2023-05-10T00:51:25;14.60;99.90
8824;DHT22;4448;50.904;4.694;2023-05-10T00:53:51;14.70;99.90
8824;DHT22;4448;50.904;4.694;2023-05-10T00:56:17;14.60;99.90
8824;DHT22;4448;50.904;4.694;2023-05-10T00:58:43;14.60;99.90
8824;DHT22;4448;50.904;4.694;2023-05-10T01:01:09;14.60;99.90
8824;DHT22;4448;50.904;4.694;2023-05-10T01:03:36;14.60;99.90
8824;DHT22;4448;50.904;4.694;2023-05-10T01:06:02;14.60;99.90
8824;DHT22;4448;50.904;4.694;2023-05-10T01:08:28;14.60;99.90
8824;DHT22;4448;50.904;4.694;2023-05-10T01:10:54;14.60;99.90
8824;DHT22;4448;50.904;4.694;2023-05-10T01:13:33;14.60;99.90
8824;DHT22;4448;50.904;4.694;2023-05-10T01:16:00;14.60;99.90
8824;DHT22;4448;50.904;4.694;2023-05-10T01:18:33;14.60;99.90
8824;DHT22;4448;50.904;4.694;2023-05-10T01:21:23;14.60;99.90
8824;DHT22;4448;50.904;4.694;2023-05-10T01:29:49;14.60;99.90
8824;DHT22;4448;50.904;4.694;2023-05-10T01:32:24;14.60;99.90
8824;DHT22;4448;50.904;4.694;2023-05-10T01:35:12;14.50;99.90
8824;DHT22;4448;50.904;4.694;2023-05-10T01:37:46;14.50;99.90
8824;DHT22;4448;50.904;4.694;2023-05-10T01:42:54;14.50;99.90
8824;DHT22;4448;50.904;4.694;2023-05-10T01:45:37;14.50;99.90
8824;DHT22;4448;50.904;4.694;2023-05-10T01:48:10;14.50;99.90
8824;DHT22;4448;50.904;4.694;2023-05-10T01:50:38;14.50;99.90
8824;DHT22;4448;50.904;4.694;2023-05-10T01:53:08;14.50;99.90
8824;DHT22;4448;50.904;4.694;2023-05-10T01:55:52;14.50;99.90
8824;DHT22;4448;50.904;4.694;2023-05-10T01:58:23;14.50;99.90
8824;DHT22;4448;50.904;4.694;2023-05-10T02:00:50;14.50;99.90
8824;DHT22;4448;50.904;4.694;2023-05-10T02:03:18;14.50;99.90
8824;DHT22;4448;50.904;4.694;2023-05-10T02:05:46;14.50;99.90
8824;DHT22;4448;50.904;4.694;2023-05-10T02:08:13;14.50;99.90
8824;DHT22;4448;50.904;4.694;2023-05-10T02:10:42;14.50;99.90
8824;DHT22;4448;50.904;4.694;2023-05-10T02:13:10;14.50;99.90
8824;DHT22;4448;50.904;4.694;2023-05-10T02:15:37;14.50;99.90
8824;DHT22;4448;50.904;4.694;2023-05-10T02:18:05;14.50;99.90
8824;DHT22;4448;50.904;4.694;2023-05-10T02:20:31;14.50;99.90
8824;DHT22;4448;50.904;4.694;2023-05-10T02:22:58;14.50;99.90
8824;DHT22;4448;50.904;4.694;2023-05-10T02:25:25;14.50;99.90
8824;DHT22;4448;50.904;4.694;2023-05-10T02:27:55;14.50;99.90
8824;DHT22;4448;50.904;4.694;2023-05-10T02:30:22;14.50;99.90
8824;DHT22;4448;50.904;4.694;2023-05-10T02:32:49;14.50;99.90
8824;DHT22;4448;50.904;4.694;2023-05-10T02:35:16;14.50;99.90
8824;DHT22;4448;50.904;4.694;2023-05-10T02:37:42;14.50;99.90
8824;DHT22;4448;50.904;4.694;2023-05-10T02:40:10;14.50;99.90
8824;DHT22;4448;50.904;4.694;2023-05-10T02:42:38;14.50;99.90
8824;DHT22;4448;50.904;4.694;2023-05-10T02:45:10;14.50;99.90
8824;DHT22;4448;50.904;4.694;2023-05-10T02:47:36;14.50;99.90
8824;DHT22;4448;50.904;4.694;2023-05-10T02:50:02;14.50;99.90
8824;DHT22;4448;50.904;4.694;2023-05-10T02:52:42;14.50;99.90
8824;DHT22;4448;50.904;4.694;2023-05-10T02:55:11;14.50;99.90
8824;DHT22;4448;50.904;4.694;2023-05-10T02:57:41;14.50;99.90
8824;DHT22;4448;50.904;4.694;2023-05-10T03:00:08;14.50;99.90
8824;DHT22;4448;50.904;4.694;2023-05-10T03:02:34;14.50;99.90
8824;DHT22;4448;50.904;4.694;2023-05-10T03:05:00;14.50;99.90
8824;DHT22;4448;50.904;4.694;2023-05-10T03:07:26;14.50;99.90
8824;DHT22;4448;50.904;4.694;2023-05-10T03:09:52;14.50;99.90
8824;DHT22;4448;50.904;4.694;2023-05-10T03:12:41;14.50;99.90
8824;DHT22;4448;50.904;4.694;2023-05-10T03:18:02;14.50;99.90
8824;DHT22;4448;50.904;4.694;2023-05-10T03:20:32;14.50;99.90
8824;DHT22;4448;50.904;4.694;2023-05-10T03:23:07;14.50;99.90
8824;DHT22;4448;50.904;4.694;2023-05-10T03:25:37;14.60;99.90
8824;DHT22;4448;50.904;4.694;2023-05-10T03:28:04;14.60;99.90
8824;DHT22;4448;50.904;4.694;2023-05-10T03:30:30;14.60;99.90
8824;DHT22;4448;50.904;4.694;2023-05-10T03:32:57;14.60;99.90
8824;DHT22;4448;50.904;4.694;2023-05-10T03:35:23;14.60;99.90
8824;DHT22;4448;50.904;4.694;2023-05-10T03:37:49;14.60;99.90
8824;DHT22;4448;50.904;4.694;2023-05-10T03:40:15;14.60;99.90
8824;DHT22;4448;50.904;4.694;2023-05-10T03:42:41;14.60;99.90
8824;DHT22;4448;50.904;4.694;2023-05-10T03:45:07;14.60;99.90
8824;DHT22;4448;50.904;4.694;2023-05-10T03:47:33;14.60;99.90
8824;DHT22;4448;50.904;4.694;2023-05-10T03:50:00;14.50;99.90
8824;DHT22;4448;50.904;4.694;2023-05-10T03:52:25;14.50;99.90
8824;DHT22;4448;50.904;4.694;2023-05-10T03:54:51;14.50;99.90
8824;DHT22;4448;50.904;4.694;2023-05-10T03:57:17;14.50;99.90
8824;DHT22;4448;50.904;4.694;2023-05-10T03:59:43;14.50;99.90
8824;DHT22;4448;50.904;4.694;2023-05-10T04:02:09;14.50;99.90
8824;DHT22;4448;50.904;4.694;2023-05-10T04:04:35;14.50;99.90
8824;DHT22;4448;50.904;4.694;2023-05-10T04:07:00;14.50;99.90
8824;DHT22;4448;50.904;4.694;2023-05-10T04:09:26;14.50;99.90
8824;DHT22;4448;50.904;4.694;2023-05-10T04:11:52;14.50;99.90
8824;DHT22;4448;50.904;4.694;2023-05-10T04:14:17;14.50;99.90
8824;DHT22;4448;50.904;4.694;2023-05-10T04:16:43;14.50;99.90
8824;DHT22;4448;50.904;4.694;2023-05-10T04:19:09;14.50;99.90
8824;DHT22;4448;50.904;4.694;2023-05-10T04:21:34;14.50;99.90
8824;DHT22;4448;50.904;4.694;2023-05-10T04:24:01;14.50;99.90
8824;DHT22;4448;50.904;4.694;2023-05-10T04:26:27;14.50;99.90
8824;DHT22;4448;50.904;4.694;2023-05-10T04:28:53;14.50;99.90
8824;DHT22;4448;50.904;4.694;2023-05-10T04:31:18;14.40;99.90
8824;DHT22;4448;50.904;4.694;2023-05-10T04:33:44;14.50;99.90
8824;DHT22;4448;50.904;4.694;2023-05-10T04:36:10;14.50;99.90
8824;DHT22;4448;50.904;4.694;2023-05-10T04:38:36;14.50;99.90
8824;DHT22;4448;50.904;4.694;2023-05-10T04:41:09;14.50;99.90
8824;DHT22;4448;50.904;4.694;2023-05-10T04:43:35;14.50;99.90
8824;DHT22;4448;50.904;4.694;2023-05-10T04:46:01;14.50;99.90
8824;DHT22;4448;50.904;4.694;2023-05-10T04:48:27;14.50;99.90
8824;DHT22;4448;50.904;4.694;2023-05-10T04:50:53;14.40;99.90
8824;DHT22;4448;50.904;4.694;2023-05-10T04:53:19;14.40;99.90
8824;DHT22;4448;50.904;4.694;2023-05-10T04:55:44;14.50;99.90
8824;DHT22;4448;50.904;4.694;2023-05-10T04:58:10;14.50;99.90
8824;DHT22;4448;50.904;4.694;2023-05-10T05:00:36;14.40;99.90
8824;DHT22;4448;50.904;4.694;2023-05-10T05:03:02;14.40;99.90
8824;DHT22;4448;50.904;4.694;2023-05-10T05:05:27;14.40;99.90
8824;DHT22;4448;50.904;4.694;2023-05-10T05:07:53;14.50;99.90
8824;DHT22;4448;50.904;4.694;2023-05-10T05:10:19;14.50;99.90
8824;DHT22;4448;50.904;4.694;2023-05-10T05:12:44;14.50;99.90
8824;DHT22;4448;50.904;4.694;2023-05-10T05:15:10;14.50;99.90
8824;DHT22;4448;50.904;4.694;2023-05-10T05:17:36;14.50;99.90
8824;DHT22;4448;50.904;4.694;2023-05-10T05:20:02;14.50;99.90
8824;DHT22;4448;50.904;4.694;2023-05-10T05:22:28;14.50;99.90
8824;DHT22;4448;50.904;4.694;2023-05-10T05:24:57;14.50;99.90
8824;DHT22;4448;50.904;4.694;2023-05-10T05:27:27;14.50;99.90
8824;DHT22;4448;50.904;4.694;2023-05-10T05:29:54;14.50;99.90
8824;DHT22;4448;50.904;4.694;2023-05-10T05:32:19;14.50;99.90
8824;DHT22;4448;50.904;4.694;2023-05-10T05:34:46;14.50;99.90
8824;DHT22;4448;50.904;4.694;2023-05-10T05:37:15;14.50;99.90
8824;DHT22;4448;50.904;4.694;2023-05-10T05:39:42;14.60;99.90
8824;DHT22;4448;50.904;4.694;2023-05-10T05:42:11;14.60;99.90
8824;DHT22;4448;50.904;4.694;2023-05-10T05:44:37;14.60;99.90
8824;DHT22;4448;50.904;4.694;2023-05-10T05:47:03;14.60;99.90
8824;DHT22;4448;50.904;4.694;2023-05-10T05:49:29;14.60;99.90
8824;DHT22;4448;50.904;4.694;2023-05-10T05:52:02;14.60;99.90
8824;DHT22;4448;50.904;4.694;2023-05-10T05:54:28;14.60;99.90
8824;DHT22;4448;50.904;4.694;2023-05-10T05:56:55;14.50;99.90
8824;DHT22;4448;50.904;4.694;2023-05-10T05:59:21;14.50;99.90
8824;DHT22;4448;50.904;4.694;2023-05-10T06:01:47;14.60;99.90
8824;DHT22;4448;50.904;4.694;2023-05-10T06:04:12;14.60;99.90
8824;DHT22;4448;50.904;4.694;2023-05-10T06:06:38;14.60;99.90
8824;DHT22;4448;50.904;4.694;2023-05-10T06:09:04;14.60;99.90
8824;DHT22;4448;50.904;4.694;2023-05-10T06:11:29;14.60;99.90
8824;DHT22;4448;50.904;4.694;2023-05-10T06:13:58;14.70;99.90
8824;DHT22;4448;50.904;4.694;2023-05-10T06:16:23;14.70;99.90
8824;DHT22;4448;50.904;4.694;2023-05-10T06:18:49;14.70;99.90
8824;DHT22;4448;50.904;4.694;2023-05-10T06:21:15;14.70;99.90
8824;DHT22;4448;50.904;4.694;2023-05-10T06:23:41;14.70;99.90
8824;DHT22;4448;50.904;4.694;2023-05-10T06:26:07;14.70;99.90
8824;DHT22;4448;50.904;4.694;2023-05-10T06:28:33;14.70;99.90
8824;DHT22;4448;50.904;4.694;2023-05-10T06:30:59;15.00;99.90
8824;DHT22;4448;50.904;4.694;2023-05-10T06:33:25;14.70;99.90
8824;DHT22;4448;50.904;4.694;2023-05-10T06:35:51;14.70;99.90
8824;DHT22;4448;50.904;4.694;2023-05-10T06:38:17;14.70;99.90
8824;DHT22;4448;50.904;4.694;2023-05-10T06:40:42;14.70;99.90
8824;DHT22;4448;50.904;4.694;2023-05-10T06:43:09;14.80;99.90
8824;DHT22;4448;50.904;4.694;2023-05-10T06:45:34;14.80;99.90
8824;DHT22;4448;50.904;4.694;2023-05-10T06:48:00;14.80;99.90
8824;DHT22;4448;50.904;4.694;2023-05-10T06:50:26;14.70;99.90
8824;DHT22;4448;50.904;4.694;2023-05-10T06:52:52;14.80;99.90
8824;DHT22;4448;50.904;4.694;2023-05-10T06:55:17;14.70;99.90
8824;DHT22;4448;50.904;4.694;2023-05-10T06:57:43;14.80;99.90
8824;DHT22;4448;50.904;4.694;2023-05-10T07:00:09;14.80;99.90
8824;DHT22;4448;50.904;4.694;2023-05-10T07:02:35;14.80;99.90
8824;DHT22;4448;50.904;4.694;2023-05-10T07:05:02;14.80;99.90
8824;DHT22;4448;50.904;4.694;2023-05-10T07:07:28;14.80;99.90
8824;DHT22;4448;50.904;4.694;2023-05-10T07:09:54;14.90;99.90
8824;DHT22;4448;50.904;4.694;2023-05-10T07:12:20;14.90;99.90
8824;DHT22;4448;50.904;4.694;2023-05-10T07:14:45;14.90;99.90
8824;DHT22;4448;50.904;4.694;2023-05-10T07:17:11;14.90;99.90
8824;DHT22;4448;50.904;4.694;2023-05-10T07:19:37;14.90;99.90
8824;DHT22;4448;50.904;4.694;2023-05-10T07:22:03;14.90;99.90
8824;DHT22;4448;50.904;4.694;2023-05-10T07:24:29;14.80;99.90
8824;DHT22;4448;50.904;4.694;2023-05-10T07:26:55;14.80;99.90
8824;DHT22;4448;50.904;4.694;2023-05-10T07:29:20;14.80;99.90
8824;DHT22;4448;50.904;4.694;2023-05-10T07:31:46;14.80;99.90
8824;DHT22;4448;50.904;4.694;2023-05-10T07:34:12;14.80;99.90
8824;DHT22;4448;50.904;4.694;2023-05-10T07:36:37;14.80;99.90
8824;DHT22;4448;50.904;4.694;2023-05-10T07:39:03;14.80;99.90
8824;DHT22;4448;50.904;4.694;2023-05-10T07:41:29;14.80;99.90
8824;DHT22;4448;50.904;4.694;2023-05-10T07:43:55;14.80;99.90
8824;DHT22;4448;50.904;4.694;2023-05-10T07:46:20;14.80;99.90
8824;DHT22;4448;50.904;4.694;2023-05-10T07:48:46;14.80;99.90
8824;DHT22;4448;50.904;4.694;2023-05-10T07:51:12;14.70;99.90
8824;DHT22;4448;50.904;4.694;2023-05-10T07:53:38;14.70;99.90
8824;DHT22;4448;50.904;4.694;2023-05-10T07:56:24;14.70;99.90
8824;DHT22;4448;50.904;4.694;2023-05-10T07:58:52;14.70;99.90
8824;DHT22;4448;50.904;4.694;2023-05-10T08:01:18;14.70;99.90
8824;DHT22;4448;50.904;4.694;2023-05-10T08:03:45;14.70;99.90
8824;DHT22;4448;50.904;4.694;2023-05-10T08:06:10;14.70;99.90
8824;DHT22;4448;50.904;4.694;2023-05-10T08:08:36;14.60;99.90
8824;DHT22;4448;50.904;4.694;2023-05-10T08:11:03;14.60;99.90
8824;DHT22;4448;50.904;4.694;2023-05-10T08:13:29;14.60;99.90
8824;DHT22;4448;50.904;4.694;2023-05-10T08:15:54;14.60;99.90
8824;DHT22;4448;50.904;4.694;2023-05-10T08:18:20;14.60;99.90
8824;DHT22;4448;50.904;4.694;2023-05-10T08:20:46;14.60;99.90
8824;DHT22;4448;50.904;4.694;2023-05-10T08:23:15;14.60;99.90
8824;DHT22;4448;50.904;4.694;2023-05-10T08:25:41;14.60;99.90
8824;DHT22;4448;50.904;4.694;2023-05-10T08:28:06;14.60;99.90
8824;DHT22;4448;50.904;4.694;2023-05-10T08:30:32;14.60;99.90
8824;DHT22;4448;50.904;4.694;2023-05-10T08:32:58;14.60;99.90
8824;DHT22;4448;50.904;4.694;2023-05-10T08:35:23;14.60;99.90
8824;DHT22;4448;50.904;4.694;2023-05-10T08:37:50;14.60;99.90
8824;DHT22;4448;50.904;4.694;2023-05-10T08:40:19;14.60;99.90
8824;DHT22;4448;50.904;4.694;2023-05-10T08:42:53;14.70;99.90
8824;DHT22;4448;50.904;4.694;2023-05-10T08:45:23;14.70;99.90
8824;DHT22;4448;50.904;4.694;2023-05-10T08:47:50;14.70;99.90
8824;DHT22;4448;50.904;4.694;2023-05-10T08:50:26;14.70;99.90
8824;DHT22;4448;50.904;4.694;2023-05-10T08:52:53;14.70;99.90
8824;DHT22;4448;50.904;4.694;2023-05-10T08:55:21;14.70;99.90
8824;DHT22;4448;50.904;4.694;2023-05-10T08:57:49;14.70;99.90
8824;DHT22;4448;50.904;4.694;2023-05-10T09:00:15;14.70;99.90
8824;DHT22;4448;50.904;4.694;2023-05-10T09:02:43;14.70;99.90
8824;DHT22;4448;50.904;4.694;2023-05-10T09:05:08;14.70;99.90
8824;DHT22;4448;50.904;4.694;2023-05-10T09:07:36;14.70;99.90
8824;DHT22;4448;50.904;4.694;2023-05-10T09:10:02;14.70;99.90
8824;DHT22;4448;50.904;4.694;2023-05-10T09:12:29;14.70;99.90
8824;DHT22;4448;50.904;4.694;2023-05-10T09:14:55;14.70;99.90
8824;DHT22;4448;50.904;4.694;2023-05-10T09:17:24;14.70;99.90
8824;DHT22;4448;50.904;4.694;2023-05-10T09:19:50;14.70;99.90
8824;DHT22;4448;50.904;4.694;2023-05-10T09:22:16;14.70;99.90
8824;DHT22;4448;50.904;4.694;2023-05-10T09:24:43;14.70;99.90
8824;DHT22;4448;50.904;4.694;2023-05-10T09:27:10;14.80;99.90
8824;DHT22;4448;50.904;4.694;2023-05-10T09:29:41;14.80;99.90
8824;DHT22;4448;50.904;4.694;2023-05-10T09:32:07;14.80;99.90
8824;DHT22;4448;50.904;4.694;2023-05-10T09:34:33;14.80;99.90
8824;DHT22;4448;50.904;4.694;2023-05-10T09:37:02;14.90;99.90
8824;DHT22;4448;50.904;4.694;2023-05-10T09:39:32;14.90;99.90
8824;DHT22;4448;50.904;4.694;2023-05-10T09:41:59;15.20;99.90
8824;DHT22;4448;50.904;4.694;2023-05-10T09:44:27;14.70;99.90
8824;DHT22;4448;50.904;4.694;2023-05-10T09:46:52;14.90;99.90
8824;DHT22;4448;50.904;4.694;2023-05-10T09:49:20;15.00;99.90
8824;DHT22;4448;50.904;4.694;2023-05-10T09:51:46;15.00;99.90
8824;DHT22;4448;50.904;4.694;2023-05-10T09:54:16;15.00;99.90
8824;DHT22;4448;50.904;4.694;2023-05-10T09:56:42;15.00;99.90
8824;DHT22;4448;50.904;4.694;2023-05-10T09:59:11;15.10;99.90
8824;DHT22;4448;50.904;4.694;2023-05-10T10:01:37;15.10;99.90
8824;DHT22;4448;50.904;4.694;2023-05-10T10:04:08;15.10;99.90
8824;DHT22;4448;50.904;4.694;2023-05-10T10:06:40;15.20;99.90
8824;DHT22;4448;50.904;4.694;2023-05-10T10:09:06;15.20;99.90
8824;DHT22;4448;50.904;4.694;2023-05-10T10:11:35;15.20;99.90
8824;DHT22;4448;50.904;4.694;2023-05-10T10:14:00;15.20;99.90
8824;DHT22;4448;50.904;4.694;2023-05-10T10:16:30;15.20;99.90
8824;DHT22;4448;50.904;4.694;2023-05-10T10:18:56;15.10;99.90
8824;DHT22;4448;50.904;4.694;2023-05-10T10:21:23;15.10;99.90
8824;DHT22;4448;50.904;4.694;2023-05-10T10:23:49;15.10;99.90
8824;DHT22;4448;50.904;4.694;2023-05-10T10:26:17;15.10;99.90
8824;DHT22;4448;50.904;4.694;2023-05-10T10:29:16;15.10;99.90
8824;DHT22;4448;50.904;4.694;2023-05-10T10:34:29;15.10;99.90
8824;DHT22;4448;50.904;4.694;2023-05-10T10:36:56;15.10;99.90
8824;DHT22;4448;50.904;4.694;2023-05-10T10:39:23;15.10;99.90
8824;DHT22;4448;50.904;4.694;2023-05-10T10:41:56;15.20;99.90
8824;DHT22;4448;50.904;4.694;2023-05-10T10:44:23;15.10;99.90
8824;DHT22;4448;50.904;4.694;2023-05-10T10:55:08;15.20;99.90
8824;DHT22;4448;50.904;4.694;2023-05-10T11:00:22;15.20;99.90
8824;DHT22;4448;50.904;4.694;2023-05-10T11:02:50;15.20;99.90
8824;DHT22;4448;50.904;4.694;2023-05-10T11:05:42;15.20;99.90
8824;DHT22;4448;50.904;4.694;2023-05-10T11:08:12;15.30;99.90
8824;DHT22;4448;50.904;4.694;2023-05-10T11:10:39;15.40;99.90
8824;DHT22;4448;50.904;4.694;2023-05-10T11:13:07;15.50;99.90
8824;DHT22;4448;50.904;4.694;2023-05-10T11:15:35;15.50;99.90
8824;DHT22;4448;50.904;4.694;2023-05-10T11:18:18;15.60;99.90
8824;DHT22;4448;50.904;4.694;2023-05-10T11:20:45;15.70;99.90
8824;DHT22;4448;50.904;4.694;2023-05-10T11:23:15;15.80;99.90
8824;DHT22;4448;50.904;4.694;2023-05-10T11:25:43;15.90;99.90
8824;DHT22;4448;50.904;4.694;2023-05-10T11:28:10;15.90;99.90
8824;DHT22;4448;50.904;4.694;2023-05-10T11:30:38;16.00;99.90
8824;DHT22;4448;50.904;4.694;2023-05-10T11:33:04;16.10;99.90
8824;DHT22;4448;50.904;4.694;2023-05-10T11:35:30;16.20;99.90
8824;DHT22;4448;50.904;4.694;2023-05-10T11:37:55;16.30;99.90
8824;DHT22;4448;50.904;4.694;2023-05-10T11:40:22;16.30;99.90
8824;DHT22;4448;50.904;4.694;2023-05-10T11:42:50;16.40;99.90
8824;DHT22;4448;50.904;4.694;2023-05-10T11:45:16;16.40;99.90
8824;DHT22;4448;50.904;4.694;2023-05-10T11:47:42;16.50;99.90
8824;DHT22;4448;50.904;4.694;2023-05-10T11:50:10;16.50;99.90
8824;DHT22;4448;50.904;4.694;2023-05-10T11:52:36;16.50;99.90
8824;DHT22;4448;50.904;4.694;2023-05-10T11:55:05;16.60;99.90
8824;DHT22;4448;50.904;4.694;2023-05-10T11:57:31;16.60;99.90
8824;DHT22;4448;50.904;4.694;2023-05-10T11:59:57;16.70;99.90
8824;DHT22;4448;50.904;4.694;2023-05-10T12:02:23;16.70;99.90
8824;DHT22;4448;50.904;4.694;2023-05-10T12:04:50;16.80;99.90
8824;DHT22;4448;50.904;4.694;2023-05-10T12:07:16;16.80;99.90
8824;DHT22;4448;50.904;4.694;2023-05-10T12:09:43;16.80;99.90
8824;DHT22;4448;50.904;4.694;2023-05-10T12:12:15;16.90;99.90
8824;DHT22;4448;50.904;4.694;2023-05-10T12:14:41;16.90;99.90
8824;DHT22;4448;50.904;4.694;2023-05-10T12:17:11;16.90;99.90
8824;DHT22;4448;50.904;4.694;2023-05-10T12:19:38;16.90;99.90
8824;DHT22;4448;50.904;4.694;2023-05-10T12:22:05;16.90;99.90
8824;DHT22;4448;50.904;4.694;2023-05-10T12:24:35;16.90;99.90
8824;DHT22;4448;50.904;4.694;2023-05-10T12:27:05;16.90;99.90
8824;DHT22;4448;50.904;4.694;2023-05-10T12:29:33;16.90;99.90
8824;DHT22;4448;50.904;4.694;2023-05-10T12:31:59;16.90;99.90
8824;DHT22;4448;50.904;4.694;2023-05-10T12:34:35;16.90;99.90
8824;DHT22;4448;50.904;4.694;2023-05-10T12:37:02;17.00;99.90
8824;DHT22;4448;50.904;4.694;2023-05-10T12:39:41;17.00;99.90
8824;DHT22;4448;50.904;4.694;2023-05-10T12:42:07;17.00;99.90
8824;DHT22;4448;50.904;4.694;2023-05-10T12:44:33;17.10;99.90
8824;DHT22;4448;50.904;4.694;2023-05-10T12:46:58;17.10;99.90
8824;DHT22;4448;50.904;4.694;2023-05-10T12:49:24;17.10;99.90
8824;DHT22;4448;50.904;4.694;2023-05-10T12:51:50;17.20;99.90
8824;DHT22;4448;50.904;4.694;2023-05-10T12:54:15;17.20;99.90
8824;DHT22;4448;50.904;4.694;2023-05-10T12:56:41;17.20;99.90
8824;DHT22;4448;50.904;4.694;2023-05-10T12:59:08;17.30;99.90
8824;DHT22;4448;50.904;4.694;2023-05-10T13:01:33;17.30;99.90
8824;DHT22;4448;50.904;4.694;2023-05-10T13:03:59;17.30;99.90
8824;DHT22;4448;50.904;4.694;2023-05-10T13:06:25;17.40;99.90
8824;DHT22;4448;50.904;4.694;2023-05-10T13:08:51;17.40;99.90
8824;DHT22;4448;50.904;4.694;2023-05-10T13:11:17;17.40;99.90
8824;DHT22;4448;50.904;4.694;2023-05-10T13:13:45;17.40;99.90
8824;DHT22;4448;50.904;4.694;2023-05-10T13:16:10;17.40;99.90
8824;DHT22;4448;50.904;4.694;2023-05-10T13:18:36;17.50;99.90
8824;DHT22;4448;50.904;4.694;2023-05-10T13:21:02;17.40;99.90
8824;DHT22;4448;50.904;4.694;2023-05-10T13:23:30;17.50;99.90
8824;DHT22;4448;50.904;4.694;2023-05-10T13:25:56;17.50;99.90
8824;DHT22;4448;50.904;4.694;2023-05-10T13:28:22;17.50;99.90
8824;DHT22;4448;50.904;4.694;2023-05-10T13:30:47;17.50;99.90
8824;DHT22;4448;50.904;4.694;2023-05-10T13:33:13;17.50;99.90
8824;DHT22;4448;50.904;4.694;2023-05-10T13:35:39;17.50;99.90
8824;DHT22;4448;50.904;4.694;2023-05-10T13:38:04;17.60;99.90
8824;DHT22;4448;50.904;4.694;2023-05-10T13:40:33;17.50;99.90
8824;DHT22;4448;50.904;4.694;2023-05-10T13:42:59;17.60;99.90
8824;DHT22;4448;50.904;4.694;2023-05-10T13:45:24;17.00;99.90
8824;DHT22;4448;50.904;4.694;2023-05-10T13:47:50;17.50;99.90
8824;DHT22;4448;50.904;4.694;2023-05-10T13:50:17;17.50;99.90
8824;DHT22;4448;50.904;4.694;2023-05-10T13:52:43;17.50;99.90
8824;DHT22;4448;50.904;4.694;2023-05-10T13:55:09;17.50;99.90
8824;DHT22;4448;50.904;4.694;2023-05-10T13:57:37;17.50;99.90
8824;DHT22;4448;50.904;4.694;2023-05-10T14:00:03;17.50;99.90
8824;DHT22;4448;50.904;4.694;2023-05-10T14:02:30;17.50;99.90
8824;DHT22;4448;50.904;4.694;2023-05-10T14:04:55;17.50;99.90
8824;DHT22;4448;50.904;4.694;2023-05-10T14:07:21;17.50;99.90
8824;DHT22;4448;50.904;4.694;2023-05-10T14:09:47;17.40;99.90
8824;DHT22;4448;50.904;4.694;2023-05-10T14:12:12;17.40;99.90
8824;DHT22;4448;50.904;4.694;2023-05-10T14:14:39;17.30;99.90
8824;DHT22;4448;50.904;4.694;2023-05-10T14:17:05;17.20;99.90
8824;DHT22;4448;50.904;4.694;2023-05-10T14:19:31;17.20;99.90
8824;DHT22;4448;50.904;4.694;2023-05-10T14:21:59;17.20;99.90
8824;DHT22;4448;50.904;4.694;2023-05-10T14:24:24;17.20;99.90
8824;DHT22;4448;50.904;4.694;2023-05-10T14:26:50;17.30;99.90
8824;DHT22;4448;50.904;4.694;2023-05-10T14:29:19;17.30;99.90
8824;DHT22;4448;50.904;4.694;2023-05-10T14:31:45;17.30;99.90
8824;DHT22;4448;50.904;4.694;2023-05-10T14:34:11;17.40;99.90
8824;DHT22;4448;50.904;4.694;2023-05-10T14:36:36;17.40;99.90
8824;DHT22;4448;50.904;4.694;2023-05-10T14:39:02;17.40;99.90
8824;DHT22;4448;50.904;4.694;2023-05-10T14:41:28;17.40;99.90
8824;DHT22;4448;50.904;4.694;2023-05-10T14:43:55;17.50;99.90
8824;DHT22;4448;50.904;4.694;2023-05-10T14:46:21;17.50;99.90
8824;DHT22;4448;50.904;4.694;2023-05-10T14:48:46;17.50;99.90
8824;DHT22;4448;50.904;4.694;2023-05-10T14:51:12;17.60;99.90
8824;DHT22;4448;50.904;4.694;2023-05-10T14:53:38;17.40;99.90
8824;DHT22;4448;50.904;4.694;2023-05-10T14:56:04;17.50;99.90
8824;DHT22;4448;50.904;4.694;2023-05-10T14:58:29;17.40;99.90
8824;DHT22;4448;50.904;4.694;2023-05-10T15:00:58;17.50;99.90
8824;DHT22;4448;50.904;4.694;2023-05-10T15:03:24;17.40;99.90
8824;DHT22;4448;50.904;4.694;2023-05-10T15:05:50;17.50;99.90
8824;DHT22;4448;50.904;4.694;2023-05-10T15:08:16;17.50;99.90
8824;DHT22;4448;50.904;4.694;2023-05-10T15:10:42;17.50;99.90
8824;DHT22;4448;50.904;4.694;2023-05-10T15:13:08;17.60;99.90
8824;DHT22;4448;50.904;4.694;2023-05-10T15:15:33;17.50;99.90
8824;DHT22;4448;50.904;4.694;2023-05-10T15:17:59;17.50;99.90
8824;DHT22;4448;50.904;4.694;2023-05-10T15:20:25;17.40;99.90
8824;DHT22;4448;50.904;4.694;2023-05-10T15:22:51;17.50;99.90
8824;DHT22;4448;50.904;4.694;2023-05-10T15:25:18;17.40;99.90
8824;DHT22;4448;50.904;4.694;2023-05-10T15:27:44;17.40;99.90
8824;DHT22;4448;50.904;4.694;2023-05-10T15:30:10;17.40;99.90
8824;DHT22;4448;50.904;4.694;2023-05-10T15:32:36;17.40;99.90
8824;DHT22;4448;50.904;4.694;2023-05-10T15:35:03;17.40;99.90
8824;DHT22;4448;50.904;4.694;2023-05-10T15:37:28;17.40;99.90
8824;DHT22;4448;50.904;4.694;2023-05-10T15:39:54;17.30;99.90
8824;DHT22;4448;50.904;4.694;2023-05-10T15:42:26;17.30;99.90
8824;DHT22;4448;50.904;4.694;2023-05-10T15:44:52;17.30;99.90
8824;DHT22;4448;50.904;4.694;2023-05-10T15:47:17;17.30;99.90
8824;DHT22;4448;50.904;4.694;2023-05-10T15:49:43;17.30;99.90
8824;DHT22;4448;50.904;4.694;2023-05-10T15:52:09;17.20;99.90
8824;DHT22;4448;50.904;4.694;2023-05-10T15:54:34;17.10;99.90
8824;DHT22;4448;50.904;4.694;2023-05-10T15:57:00;17.10;99.90
8824;DHT22;4448;50.904;4.694;2023-05-10T15:59:26;17.10;99.90
8824;DHT22;4448;50.904;4.694;2023-05-10T16:01:51;16.90;99.90
8824;DHT22;4448;50.904;4.694;2023-05-10T16:04:17;16.90;99.90
8824;DHT22;4448;50.904;4.694;2023-05-10T16:06:43;16.80;99.90
8824;DHT22;4448;50.904;4.694;2023-05-10T16:09:08;16.70;99.90
8824;DHT22;4448;50.904;4.694;2023-05-10T16:11:35;16.60;99.90
8824;DHT22;4448;50.904;4.694;2023-05-10T16:14:00;16.60;99.90
8824;DHT22;4448;50.904;4.694;2023-05-10T16:16:26;16.50;99.90
8824;DHT22;4448;50.904;4.694;2023-05-10T16:18:52;16.50;99.90
8824;DHT22;4448;50.904;4.694;2023-05-10T16:21:18;16.50;99.90
8824;DHT22;4448;50.904;4.694;2023-05-10T16:23:44;16.40;99.90
8824;DHT22;4448;50.904;4.694;2023-05-10T16:26:11;16.30;99.90